sensor_id;sensor_type;location;lat;lon;timestamp;P1;durP1;ratioP1;P2;durP2;ratioP2
16099;SDS011;8154;50.830;12.082;2023-07-20T00:01:27;4.28;;;1.70;;
16099;SDS011;8154;50.830;12.082;2023-07-20T00:03:54;4.00;;;1.90;;
16099;SDS011;8154;50.830;12.082;2023-07-20T00:06:22;4.70;;;1.80;;
16099;SDS011;8154;50.830;12.082;2023-07-20T00:08:53;4.45;;;2.00;;
16099;SDS011;8154;50.830;12.082;2023-07-20T00:11:27;3.67;;;1.90;;
16099;SDS011;8154;50.830;12.082;2023-07-20T00:13:56;3.67;;;1.88;;
16099;SDS011;8154;50.830;12.082;2023-07-20T00:16:25;3.13;;;1.70;;
16099;SDS011;8154;50.830;12.082;2023-07-20T00:18:55;4.23;;;1.80;;
16099;SDS011;8154;50.830;12.082;2023-07-20T00:21:24;3.67;;;1.70;;
16099;SDS011;8154;50.830;12.082;2023-07-20T00:23:52;3.90;;;2.00;;
16099;SDS011;8154;50.830;12.082;2023-07-20T00:26:19;3.42;;;1.50;;
16099;SDS011;8154;50.830;12.082;2023-07-20T00:28:46;3.63;;;1.50;;
16099;SDS011;8154;50.830;12.082;2023-07-20T00:31:16;4.30;;;1.80;;
16099;SDS011;8154;50.830;12.082;2023-07-20T00:33:45;4.00;;;1.90;;
16099;SDS011;8154;50.830;12.082;2023-07-20T00:36:12;3.22;;;1.63;;
16099;SDS011;8154;50.830;12.082;2023-07-20T00:38:41;4.03;;;1.98;;
16099;SDS011;8154;50.830;12.082;2023-07-20T00:41:10;3.92;;;1.60;;
16099;SDS011;8154;50.830;12.082;2023-07-20T00:43:37;3.53;;;1.60;;
16099;SDS011;8154;50.830;12.082;2023-07-20T00:46:04;3.30;;;1.60;;
16099;SDS011;8154;50.830;12.082;2023-07-20T00:48:33;3.75;;;1.60;;
16099;SDS011;8154;50.830;12.082;2023-07-20T00:51:00;3.13;;;1.52;;
16099;SDS011;8154;50.830;12.082;2023-07-20T00:53:28;3.65;;;1.70;;
16099;SDS011;8154;50.830;12.082;2023-07-20T00:55:54;3.07;;;1.50;;
16099;SDS011;8154;50.830;12.082;2023-07-20T00:58:24;4.03;;;1.77;;
16099;SDS011;8154;50.830;12.082;2023-07-20T01:00:56;2.97;;;1.60;;
16099;SDS011;8154;50.830;12.082;2023-07-20T01:03:25;3.80;;;1.83;;
16099;SDS011;8154;50.830;12.082;2023-07-20T01:06:02;4.03;;;1.77;;
16099;SDS011;8154;50.830;12.082;2023-07-20T01:09:11;2.80;;;1.50;;
16099;SDS011;8154;50.830;12.082;2023-07-20T01:12:07;3.50;;;1.77;;
16099;SDS011;8154;50.830;12.082;2023-07-20T01:14:40;3.30;;;1.70;;
16099;SDS011;8154;50.830;12.082;2023-07-20T01:17:09;3.03;;;1.60;;
16099;SDS011;8154;50.830;12.082;2023-07-20T01:19:35;3.63;;;1.60;;
16099;SDS011;8154;50.830;12.082;2023-07-20T01:33:25;3.42;;;1.52;;
16099;SDS011;8154;50.830;12.082;2023-07-20T01:36:11;3.23;;;1.50;;
16099;SDS011;8154;50.830;12.082;2023-07-20T01:38:59;2.40;;;1.40;;
16099;SDS011;8154;50.830;12.082;2023-07-20T01:41:42;3.00;;;1.50;;
16099;SDS011;8154;50.830;12.082;2023-07-20T01:44:16;3.22;;;1.40;;
16099;SDS011;8154;50.830;12.082;2023-07-20T01:46:46;3.10;;;1.60;;
16099;SDS011;8154;50.830;12.082;2023-07-20T01:49:14;2.93;;;1.50;;
16099;SDS011;8154;50.830;12.082;2023-07-20T01:51:42;3.20;;;1.50;;
16099;SDS011;8154;50.830;12.082;2023-07-20T01:54:12;3.13;;;1.58;;
16099;SDS011;8154;50.830;12.082;2023-07-20T01:56:39;2.50;;;1.38;;
16099;SDS011;8154;50.830;12.082;2023-07-20T01:59:05;2.95;;;1.50;;
16099;SDS011;8154;50.830;12.082;2023-07-20T02:01:31;3.10;;;1.40;;
16099;SDS011;8154;50.830;12.082;2023-07-20T02:03:57;3.13;;;1.65;;
16099;SDS011;8154;50.830;12.082;2023-07-20T02:06:24;3.05;;;1.45;;
16099;SDS011;8154;50.830;12.082;2023-07-20T02:08:50;2.83;;;1.35;;
16099;SDS011;8154;50.830;12.082;2023-07-20T02:11:16;3.35;;;1.63;;
16099;SDS011;8154;50.830;12.082;2023-07-20T02:13:42;3.67;;;1.43;;
16099;SDS011;8154;50.830;12.082;2023-07-20T02:16:08;3.30;;;1.60;;
16099;SDS011;8154;50.830;12.082;2023-07-20T02:18:35;3.08;;;1.50;;
16099;SDS011;8154;50.830;12.082;2023-07-20T02:21:03;2.83;;;1.40;;
16099;SDS011;8154;50.830;12.082;2023-07-20T02:23:29;2.72;;;1.50;;
16099;SDS011;8154;50.830;12.082;2023-07-20T02:25:56;3.13;;;1.53;;
16099;SDS011;8154;50.830;12.082;2023-07-20T02:28:23;2.58;;;1.40;;
16099;SDS011;8154;50.830;12.082;2023-07-20T02:30:50;2.88;;;1.60;;
16099;SDS011;8154;50.830;12.082;2023-07-20T02:33:16;3.83;;;1.55;;
16099;SDS011;8154;50.830;12.082;2023-07-20T02:35:42;2.63;;;1.30;;
16099;SDS011;8154;50.830;12.082;2023-07-20T02:38:08;2.63;;;1.40;;
16099;SDS011;8154;50.830;12.082;2023-07-20T02:40:34;2.80;;;1.58;;
16099;SDS011;8154;50.830;12.082;2023-07-20T02:43:00;2.95;;;1.40;;
16099;SDS011;8154;50.830;12.082;2023-07-20T02:45:26;3.40;;;1.48;;
16099;SDS011;8154;50.830;12.082;2023-07-20T02:47:53;3.13;;;1.50;;
16099;SDS011;8154;50.830;12.082;2023-07-20T02:50:19;3.30;;;1.50;;
16099;SDS011;8154;50.830;12.082;2023-07-20T02:52:46;3.17;;;1.60;;
16099;SDS011;8154;50.830;12.082;2023-07-20T02:55:13;2.58;;;1.45;;
16099;SDS011;8154;50.830;12.082;2023-07-20T02:57:39;3.03;;;1.50;;
16099;SDS011;8154;50.830;12.082;2023-07-20T03:00:06;2.10;;;1.23;;
16099;SDS011;8154;50.830;12.082;2023-07-20T03:02:32;2.33;;;1.20;;
16099;SDS011;8154;50.830;12.082;2023-07-20T03:04:59;2.65;;;1.27;;
16099;SDS011;8154;50.830;12.082;2023-07-20T03:07:30;3.10;;;1.60;;
16099;SDS011;8154;50.830;12.082;2023-07-20T03:09:56;2.95;;;1.50;;
16099;SDS011;8154;50.830;12.082;2023-07-20T03:12:23;2.70;;;1.50;;
16099;SDS011;8154;50.830;12.082;2023-07-20T03:14:50;2.50;;;1.30;;
16099;SDS011;8154;50.830;12.082;2023-07-20T03:17:16;2.42;;;1.33;;
16099;SDS011;8154;50.830;12.082;2023-07-20T03:19:42;3.17;;;1.58;;
16099;SDS011;8154;50.830;12.082;2023-07-20T03:22:09;3.00;;;1.48;;
16099;SDS011;8154;50.830;12.082;2023-07-20T03:24:35;2.20;;;1.30;;
16099;SDS011;8154;50.830;12.082;2023-07-20T03:27:03;2.57;;;1.40;;
16099;SDS011;8154;50.830;12.082;2023-07-20T03:29:30;3.67;;;1.60;;
16099;SDS011;8154;50.830;12.082;2023-07-20T03:31:58;2.58;;;1.33;;
16099;SDS011;8154;50.830;12.082;2023-07-20T03:34:25;2.70;;;1.40;;
16099;SDS011;8154;50.830;12.082;2023-07-20T03:36:51;3.13;;;1.30;;
16099;SDS011;8154;50.830;12.082;2023-07-20T03:39:17;2.57;;;1.30;;
16099;SDS011;8154;50.830;12.082;2023-07-20T03:41:43;2.90;;;1.40;;
16099;SDS011;8154;50.830;12.082;2023-07-20T03:44:09;3.15;;;1.45;;
16099;SDS011;8154;50.830;12.082;2023-07-20T03:46:37;2.55;;;1.30;;
16099;SDS011;8154;50.830;12.082;2023-07-20T03:49:03;3.20;;;1.60;;
16099;SDS011;8154;50.830;12.082;2023-07-20T03:51:32;2.60;;;1.40;;
16099;SDS011;8154;50.830;12.082;2023-07-20T03:53:59;2.53;;;1.20;;
16099;SDS011;8154;50.830;12.082;2023-07-20T03:56:25;2.40;;;1.20;;
16099;SDS011;8154;50.830;12.082;2023-07-20T03:58:52;2.90;;;1.48;;
16099;SDS011;8154;50.830;12.082;2023-07-20T04:01:18;2.40;;;1.20;;
16099;SDS011;8154;50.830;12.082;2023-07-20T04:03:44;2.47;;;1.40;;
16099;SDS011;8154;50.830;12.082;2023-07-20T04:06:20;2.63;;;1.30;;
16099;SDS011;8154;50.830;12.082;2023-07-20T04:08:46;2.35;;;1.20;;
16099;SDS011;8154;50.830;12.082;2023-07-20T04:11:15;3.00;;;1.38;;
16099;SDS011;8154;50.830;12.082;2023-07-20T04:13:41;2.60;;;1.30;;
16099;SDS011;8154;50.830;12.082;2023-07-20T04:16:07;2.70;;;1.23;;
16099;SDS011;8154;50.830;12.082;2023-07-20T04:18:34;2.83;;;1.25;;
16099;SDS011;8154;50.830;12.082;2023-07-20T04:21:01;2.38;;;1.30;;
16099;SDS011;8154;50.830;12.082;2023-07-20T04:23:27;2.40;;;1.40;;
16099;SDS011;8154;50.830;12.082;2023-07-20T04:25:54;2.40;;;1.20;;
16099;SDS011;8154;50.830;12.082;2023-07-20T04:28:21;2.85;;;1.40;;
16099;SDS011;8154;50.830;12.082;2023-07-20T04:30:48;2.50;;;1.17;;
16099;SDS011;8154;50.830;12.082;2023-07-20T04:33:17;2.67;;;1.30;;
16099;SDS011;8154;50.830;12.082;2023-07-20T04:35:47;2.30;;;1.10;;
16099;SDS011;8154;50.830;12.082;2023-07-20T04:38:14;2.25;;;1.20;;
16099;SDS011;8154;50.830;12.082;2023-07-20T04:40:46;2.77;;;1.40;;
16099;SDS011;8154;50.830;12.082;2023-07-20T04:43:13;2.33;;;1.10;;
16099;SDS011;8154;50.830;12.082;2023-07-20T04:45:41;2.28;;;1.20;;
16099;SDS011;8154;50.830;12.082;2023-07-20T04:48:11;2.20;;;1.20;;
16099;SDS011;8154;50.830;12.082;2023-07-20T04:50:42;2.55;;;1.40;;
16099;SDS011;8154;50.830;12.082;2023-07-20T04:53:10;2.40;;;1.23;;
16099;SDS011;8154;50.830;12.082;2023-07-20T04:55:39;1.88;;;1.20;;
16099;SDS011;8154;50.830;12.082;2023-07-20T04:58:05;2.20;;;1.30;;
16099;SDS011;8154;50.830;12.082;2023-07-20T05:00:32;3.15;;;1.50;;
16099;SDS011;8154;50.830;12.082;2023-07-20T05:02:59;2.70;;;1.10;;
16099;SDS011;8154;50.830;12.082;2023-07-20T05:05:25;2.47;;;1.20;;
16099;SDS011;8154;50.830;12.082;2023-07-20T05:07:51;2.72;;;1.30;;
16099;SDS011;8154;50.830;12.082;2023-07-20T05:10:20;2.22;;;1.10;;
16099;SDS011;8154;50.830;12.082;2023-07-20T05:12:50;2.33;;;1.10;;
16099;SDS011;8154;50.830;12.082;2023-07-20T05:15:16;2.20;;;1.25;;
16099;SDS011;8154;50.830;12.082;2023-07-20T05:17:42;2.47;;;1.30;;
16099;SDS011;8154;50.830;12.082;2023-07-20T05:20:08;2.28;;;1.30;;
16099;SDS011;8154;50.830;12.082;2023-07-20T05:22:42;2.65;;;1.30;;
16099;SDS011;8154;50.830;12.082;2023-07-20T05:25:09;2.75;;;1.20;;
16099;SDS011;8154;50.830;12.082;2023-07-20T05:27:37;2.22;;;1.20;;
16099;SDS011;8154;50.830;12.082;2023-07-20T05:30:06;2.30;;;1.30;;
16099;SDS011;8154;50.830;12.082;2023-07-20T05:32:34;2.00;;;1.23;;
16099;SDS011;8154;50.830;12.082;2023-07-20T05:35:00;2.42;;;1.17;;
16099;SDS011;8154;50.830;12.082;2023-07-20T05:37:26;1.90;;;1.20;;
16099;SDS011;8154;50.830;12.082;2023-07-20T05:39:52;1.93;;;1.20;;
16099;SDS011;8154;50.830;12.082;2023-07-20T05:42:19;2.77;;;1.40;;
16099;SDS011;8154;50.830;12.082;2023-07-20T05:44:45;2.78;;;1.30;;
16099;SDS011;8154;50.830;12.082;2023-07-20T05:47:15;2.20;;;1.23;;
16099;SDS011;8154;50.830;12.082;2023-07-20T05:49:42;2.10;;;1.20;;
16099;SDS011;8154;50.830;12.082;2023-07-20T05:52:08;2.80;;;1.30;;
16099;SDS011;8154;50.830;12.082;2023-07-20T05:54:35;2.50;;;1.30;;
16099;SDS011;8154;50.830;12.082;2023-07-20T05:57:01;2.55;;;1.30;;
16099;SDS011;8154;50.830;12.082;2023-07-20T05:59:27;2.60;;;1.25;;
16099;SDS011;8154;50.830;12.082;2023-07-20T06:01:57;2.53;;;1.25;;
16099;SDS011;8154;50.830;12.082;2023-07-20T06:04:23;2.30;;;1.37;;
16099;SDS011;8154;50.830;12.082;2023-07-20T06:06:49;2.53;;;1.13;;
16099;SDS011;8154;50.830;12.082;2023-07-20T06:09:15;1.85;;;1.13;;
16099;SDS011;8154;50.830;12.082;2023-07-20T06:11:41;1.85;;;1.13;;
16099;SDS011;8154;50.830;12.082;2023-07-20T06:14:07;2.08;;;1.20;;
16099;SDS011;8154;50.830;12.082;2023-07-20T06:16:33;1.73;;;1.07;;
16099;SDS011;8154;50.830;12.082;2023-07-20T06:19:02;2.40;;;1.27;;
16099;SDS011;8154;50.830;12.082;2023-07-20T06:21:29;2.38;;;1.35;;
16099;SDS011;8154;50.830;12.082;2023-07-20T06:23:55;2.50;;;1.20;;
16099;SDS011;8154;50.830;12.082;2023-07-20T06:26:21;2.58;;;1.40;;
16099;SDS011;8154;50.830;12.082;2023-07-20T06:28:47;2.43;;;1.27;;
16099;SDS011;8154;50.830;12.082;2023-07-20T06:31:13;2.40;;;1.30;;
16099;SDS011;8154;50.830;12.082;2023-07-20T06:33:40;1.83;;;1.17;;
16099;SDS011;8154;50.830;12.082;2023-07-20T06:36:06;1.88;;;1.00;;
16099;SDS011;8154;50.830;12.082;2023-07-20T06:38:32;3.05;;;1.20;;
16099;SDS011;8154;50.830;12.082;2023-07-20T06:40:58;2.23;;;1.10;;
16099;SDS011;8154;50.830;12.082;2023-07-20T06:43:24;1.77;;;1.10;;
16099;SDS011;8154;50.830;12.082;2023-07-20T06:45:53;2.50;;;1.20;;
16099;SDS011;8154;50.830;12.082;2023-07-20T06:48:20;2.22;;;1.17;;
16099;SDS011;8154;50.830;12.082;2023-07-20T06:50:47;2.17;;;1.10;;
16099;SDS011;8154;50.830;12.082;2023-07-20T06:53:13;2.13;;;1.10;;
16099;SDS011;8154;50.830;12.082;2023-07-20T06:55:43;2.30;;;1.30;;
16099;SDS011;8154;50.830;12.082;2023-07-20T06:58:10;2.33;;;1.10;;
16099;SDS011;8154;50.830;12.082;2023-07-20T07:00:37;1.92;;;1.05;;
16099;SDS011;8154;50.830;12.082;2023-07-20T07:03:04;2.30;;;1.10;;
16099;SDS011;8154;50.830;12.082;2023-07-20T07:05:30;2.57;;;1.40;;
16099;SDS011;8154;50.830;12.082;2023-07-20T07:07:58;2.33;;;1.38;;
16099;SDS011;8154;50.830;12.082;2023-07-20T07:10:24;3.05;;;1.10;;
16099;SDS011;8154;50.830;12.082;2023-07-20T07:12:50;1.80;;;1.10;;
16099;SDS011;8154;50.830;12.082;2023-07-20T07:15:16;1.73;;;1.02;;
16099;SDS011;8154;50.830;12.082;2023-07-20T07:17:42;2.13;;;1.23;;
16099;SDS011;8154;50.830;12.082;2023-07-20T07:20:09;2.03;;;1.20;;
16099;SDS011;8154;50.830;12.082;2023-07-20T07:22:35;2.25;;;1.20;;
16099;SDS011;8154;50.830;12.082;2023-07-20T07:25:01;2.15;;;1.20;;
16099;SDS011;8154;50.830;12.082;2023-07-20T07:27:29;2.50;;;1.20;;
16099;SDS011;8154;50.830;12.082;2023-07-20T07:29:55;2.30;;;1.10;;
16099;SDS011;8154;50.830;12.082;2023-07-20T07:32:23;2.20;;;1.20;;
16099;SDS011;8154;50.830;12.082;2023-07-20T07:34:50;1.90;;;1.10;;
16099;SDS011;8154;50.830;12.082;2023-07-20T07:37:15;2.13;;;1.20;;
16099;SDS011;8154;50.830;12.082;2023-07-20T07:39:43;2.13;;;1.38;;
16099;SDS011;8154;50.830;12.082;2023-07-20T07:42:11;1.70;;;1.00;;
16099;SDS011;8154;50.830;12.082;2023-07-20T07:44:38;1.80;;;1.00;;
16099;SDS011;8154;50.830;12.082;2023-07-20T07:47:04;1.90;;;1.10;;
16099;SDS011;8154;50.830;12.082;2023-07-20T07:49:32;2.65;;;1.25;;
16099;SDS011;8154;50.830;12.082;2023-07-20T07:51:59;1.90;;;1.10;;
16099;SDS011;8154;50.830;12.082;2023-07-20T07:54:28;2.33;;;1.03;;
16099;SDS011;8154;50.830;12.082;2023-07-20T07:56:54;2.28;;;1.10;;
16099;SDS011;8154;50.830;12.082;2023-07-20T07:59:20;1.80;;;1.00;;
16099;SDS011;8154;50.830;12.082;2023-07-20T08:01:46;2.28;;;1.20;;
16099;SDS011;8154;50.830;12.082;2023-07-20T08:04:12;1.70;;;1.00;;
16099;SDS011;8154;50.830;12.082;2023-07-20T08:06:41;2.23;;;1.20;;
16099;SDS011;8154;50.830;12.082;2023-07-20T08:09:07;2.22;;;1.20;;
16099;SDS011;8154;50.830;12.082;2023-07-20T08:11:33;2.17;;;1.00;;
16099;SDS011;8154;50.830;12.082;2023-07-20T08:14:00;2.33;;;1.13;;
16099;SDS011;8154;50.830;12.082;2023-07-20T08:16:26;2.10;;;1.10;;
16099;SDS011;8154;50.830;12.082;2023-07-20T08:18:53;2.13;;;1.17;;
16099;SDS011;8154;50.830;12.082;2023-07-20T08:21:19;2.17;;;1.17;;
16099;SDS011;8154;50.830;12.082;2023-07-20T08:23:45;1.65;;;1.00;;
16099;SDS011;8154;50.830;12.082;2023-07-20T08:26:11;1.60;;;1.00;;
16099;SDS011;8154;50.830;12.082;2023-07-20T08:28:37;2.17;;;1.20;;
16099;SDS011;8154;50.830;12.082;2023-07-20T08:31:05;1.90;;;1.00;;
16099;SDS011;8154;50.830;12.082;2023-07-20T08:33:35;1.58;;;1.15;;
16099;SDS011;8154;50.830;12.082;2023-07-20T08:36:01;2.05;;;1.15;;
16099;SDS011;8154;50.830;12.082;2023-07-20T08:38:29;1.80;;;1.02;;
16099;SDS011;8154;50.830;12.082;2023-07-20T08:40:55;1.88;;;1.20;;
16099;SDS011;8154;50.830;12.082;2023-07-20T08:43:23;2.23;;;1.00;;
16099;SDS011;8154;50.830;12.082;2023-07-20T08:45:52;1.52;;;0.90;;
16099;SDS011;8154;50.830;12.082;2023-07-20T08:48:21;2.22;;;1.00;;
16099;SDS011;8154;50.830;12.082;2023-07-20T08:50:51;1.70;;;1.00;;
16099;SDS011;8154;50.830;12.082;2023-07-20T08:53:21;2.33;;;1.25;;
16099;SDS011;8154;50.830;12.082;2023-07-20T08:55:48;2.10;;;1.10;;
16099;SDS011;8154;50.830;12.082;2023-07-20T08:58:16;1.63;;;1.00;;
16099;SDS011;8154;50.830;12.082;2023-07-20T09:00:44;2.00;;;1.10;;
16099;SDS011;8154;50.830;12.082;2023-07-20T09:03:11;1.38;;;0.90;;
16099;SDS011;8154;50.830;12.082;2023-07-20T09:05:37;1.65;;;0.93;;
16099;SDS011;8154;50.830;12.082;2023-07-20T09:08:05;1.80;;;1.00;;
16099;SDS011;8154;50.830;12.082;2023-07-20T09:10:31;1.77;;;1.05;;
16099;SDS011;8154;50.830;12.082;2023-07-20T09:13:00;1.95;;;1.00;;
16099;SDS011;8154;50.830;12.082;2023-07-20T09:15:26;1.60;;;1.00;;
16099;SDS011;8154;50.830;12.082;2023-07-20T09:17:52;2.20;;;1.10;;
16099;SDS011;8154;50.830;12.082;2023-07-20T09:20:21;2.20;;;1.03;;
16099;SDS011;8154;50.830;12.082;2023-07-20T09:22:47;1.58;;;1.00;;
16099;SDS011;8154;50.830;12.082;2023-07-20T09:25:16;1.65;;;1.00;;
16099;SDS011;8154;50.830;12.082;2023-07-20T09:27:44;1.55;;;1.02;;
16099;SDS011;8154;50.830;12.082;2023-07-20T09:30:14;1.90;;;1.10;;
16099;SDS011;8154;50.830;12.082;2023-07-20T09:32:44;1.63;;;1.10;;
16099;SDS011;8154;50.830;12.082;2023-07-20T09:40:18;1.70;;;0.95;;
16099;SDS011;8154;50.830;12.082;2023-07-20T09:42:44;1.77;;;1.10;;
16099;SDS011;8154;50.830;12.082;2023-07-20T09:45:11;1.40;;;0.90;;
16099;SDS011;8154;50.830;12.082;2023-07-20T09:47:37;1.70;;;1.00;;
16099;SDS011;8154;50.830;12.082;2023-07-20T09:50:04;1.77;;;1.00;;
16099;SDS011;8154;50.830;12.082;2023-07-20T09:52:40;1.73;;;1.00;;
16099;SDS011;8154;50.830;12.082;2023-07-20T09:55:07;2.20;;;1.05;;
16099;SDS011;8154;50.830;12.082;2023-07-20T09:57:34;1.73;;;0.90;;
16099;SDS011;8154;50.830;12.082;2023-07-20T10:00:04;1.33;;;0.93;;
16099;SDS011;8154;50.830;12.082;2023-07-20T10:02:42;1.63;;;1.00;;
16099;SDS011;8154;50.830;12.082;2023-07-20T10:05:13;1.45;;;0.82;;
16099;SDS011;8154;50.830;12.082;2023-07-20T10:07:50;2.00;;;1.15;;
16099;SDS011;8154;50.830;12.082;2023-07-20T10:10:18;1.60;;;0.90;;
16099;SDS011;8154;50.830;12.082;2023-07-20T10:12:46;1.48;;;1.00;;
16099;SDS011;8154;50.830;12.082;2023-07-20T10:15:22;1.42;;;0.90;;
16099;SDS011;8154;50.830;12.082;2023-07-20T10:20:35;1.50;;;1.10;;
16099;SDS011;8154;50.830;12.082;2023-07-20T10:23:05;1.63;;;0.90;;
16099;SDS011;8154;50.830;12.082;2023-07-20T10:25:32;1.67;;;1.00;;
16099;SDS011;8154;50.830;12.082;2023-07-20T10:28:04;1.80;;;1.10;;
16099;SDS011;8154;50.830;12.082;2023-07-20T10:30:32;1.40;;;0.95;;
16099;SDS011;8154;50.830;12.082;2023-07-20T10:33:01;1.38;;;0.93;;
16099;SDS011;8154;50.830;12.082;2023-07-20T10:35:28;1.40;;;0.93;;
16099;SDS011;8154;50.830;12.082;2023-07-20T10:37:55;1.58;;;1.00;;
16099;SDS011;8154;50.830;12.082;2023-07-20T10:40:33;1.75;;;0.95;;
16099;SDS011;8154;50.830;12.082;2023-07-20T10:43:04;1.77;;;0.95;;
16099;SDS011;8154;50.830;12.082;2023-07-20T10:45:35;1.67;;;1.00;;
16099;SDS011;8154;50.830;12.082;2023-07-20T10:48:06;1.67;;;1.00;;
16099;SDS011;8154;50.830;12.082;2023-07-20T10:50:39;1.35;;;0.90;;
16099;SDS011;8154;50.830;12.082;2023-07-20T10:53:13;1.95;;;1.20;;
16099;SDS011;8154;50.830;12.082;2023-07-20T10:55:43;1.63;;;1.00;;
16099;SDS011;8154;50.830;12.082;2023-07-20T10:58:14;1.83;;;1.10;;
16099;SDS011;8154;50.830;12.082;2023-07-20T11:00:56;1.47;;;0.90;;
16099;SDS011;8154;50.830;12.082;2023-07-20T11:03:37;2.03;;;1.10;;
16099;SDS011;8154;50.830;12.082;2023-07-20T11:08:56;1.30;;;0.90;;
16099;SDS011;8154;50.830;12.082;2023-07-20T11:11:29;1.70;;;1.00;;
16099;SDS011;8154;50.830;12.082;2023-07-20T11:14:02;1.63;;;0.93;;
16099;SDS011;8154;50.830;12.082;2023-07-20T11:16:43;1.77;;;1.00;;
16099;SDS011;8154;50.830;12.082;2023-07-20T11:19:14;1.75;;;1.10;;
16099;SDS011;8154;50.830;12.082;2023-07-20T11:21:41;1.50;;;1.00;;
16099;SDS011;8154;50.830;12.082;2023-07-20T11:24:09;1.38;;;1.00;;
16099;SDS011;8154;50.830;12.082;2023-07-20T11:29:16;1.50;;;0.90;;
16099;SDS011;8154;50.830;12.082;2023-07-20T11:31:43;2.10;;;1.00;;
16099;SDS011;8154;50.830;12.082;2023-07-20T11:34:11;1.55;;;0.90;;
16099;SDS011;8154;50.830;12.082;2023-07-20T11:36:42;1.70;;;0.98;;
16099;SDS011;8154;50.830;12.082;2023-07-20T11:39:13;1.67;;;1.03;;
16099;SDS011;8154;50.830;12.082;2023-07-20T11:41:44;1.38;;;0.90;;
16099;SDS011;8154;50.830;12.082;2023-07-20T11:44:13;1.58;;;1.17;;
16099;SDS011;8154;50.830;12.082;2023-07-20T11:46:43;1.48;;;0.85;;
16099;SDS011;8154;50.830;12.082;2023-07-20T11:49:10;1.80;;;0.98;;
16099;SDS011;8154;50.830;12.082;2023-07-20T11:51:37;1.60;;;0.90;;
16099;SDS011;8154;50.830;12.082;2023-07-20T11:54:06;1.17;;;0.82;;
16099;SDS011;8154;50.830;12.082;2023-07-20T11:56:34;1.38;;;0.93;;
16099;SDS011;8154;50.830;12.082;2023-07-20T11:59:00;1.60;;;0.90;;
16099;SDS011;8154;50.830;12.082;2023-07-20T12:01:29;1.55;;;0.98;;
16099;SDS011;8154;50.830;12.082;2023-07-20T12:03:57;1.90;;;1.20;;
16099;SDS011;8154;50.830;12.082;2023-07-20T12:06:27;1.40;;;0.90;;
16099;SDS011;8154;50.830;12.082;2023-07-20T12:08:55;1.70;;;1.10;;
16099;SDS011;8154;50.830;12.082;2023-07-20T12:11:32;1.80;;;1.00;;
16099;SDS011;8154;50.830;12.082;2023-07-20T12:13:59;1.95;;;1.00;;
16099;SDS011;8154;50.830;12.082;2023-07-20T12:16:28;1.60;;;1.07;;
16099;SDS011;8154;50.830;12.082;2023-07-20T12:19:11;1.40;;;1.00;;
16099;SDS011;8154;50.830;12.082;2023-07-20T12:21:39;1.90;;;1.08;;
16099;SDS011;8154;50.830;12.082;2023-07-20T12:24:08;1.23;;;0.90;;
16099;SDS011;8154;50.830;12.082;2023-07-20T12:26:36;1.75;;;1.05;;
16099;SDS011;8154;50.830;12.082;2023-07-20T12:29:02;1.50;;;0.87;;
16099;SDS011;8154;50.830;12.082;2023-07-20T12:31:30;1.42;;;1.00;;
16099;SDS011;8154;50.830;12.082;2023-07-20T12:33:59;1.83;;;1.00;;
16099;SDS011;8154;50.830;12.082;2023-07-20T12:36:25;1.55;;;1.00;;
16099;SDS011;8154;50.830;12.082;2023-07-20T12:38:52;1.67;;;1.10;;
16099;SDS011;8154;50.830;12.082;2023-07-20T12:41:18;1.63;;;1.00;;
16099;SDS011;8154;50.830;12.082;2023-07-20T12:43:45;1.50;;;0.95;;
16099;SDS011;8154;50.830;12.082;2023-07-20T12:46:11;1.50;;;0.90;;
16099;SDS011;8154;50.830;12.082;2023-07-20T12:48:39;1.73;;;0.98;;
16099;SDS011;8154;50.830;12.082;2023-07-20T12:51:07;1.45;;;1.02;;
16099;SDS011;8154;50.830;12.082;2023-07-20T12:53:34;1.63;;;0.80;;
16099;SDS011;8154;50.830;12.082;2023-07-20T12:56:01;1.30;;;1.00;;
16099;SDS011;8154;50.830;12.082;2023-07-20T12:58:28;1.55;;;0.90;;
16099;SDS011;8154;50.830;12.082;2023-07-20T13:00:54;1.67;;;0.95;;
16099;SDS011;8154;50.830;12.082;2023-07-20T13:03:21;1.98;;;1.00;;
16099;SDS011;8154;50.830;12.082;2023-07-20T13:05:47;1.37;;;0.90;;
16099;SDS011;8154;50.830;12.082;2023-07-20T13:08:13;1.60;;;0.90;;
16099;SDS011;8154;50.830;12.082;2023-07-20T13:10:40;1.20;;;0.73;;
16099;SDS011;8154;50.830;12.082;2023-07-20T13:13:07;1.38;;;0.90;;
16099;SDS011;8154;50.830;12.082;2023-07-20T13:15:40;1.45;;;0.80;;
16099;SDS011;8154;50.830;12.082;2023-07-20T13:18:07;1.63;;;0.87;;
16099;SDS011;8154;50.830;12.082;2023-07-20T13:20:34;1.80;;;1.00;;
16099;SDS011;8154;50.830;12.082;2023-07-20T13:23:00;1.38;;;0.90;;
16099;SDS011;8154;50.830;12.082;2023-07-20T13:25:27;1.30;;;0.98;;
16099;SDS011;8154;50.830;12.082;2023-07-20T13:27:54;1.35;;;0.90;;
16099;SDS011;8154;50.830;12.082;2023-07-20T13:30:20;1.70;;;1.10;;
16099;SDS011;8154;50.830;12.082;2023-07-20T13:32:47;1.45;;;1.00;;
16099;SDS011;8154;50.830;12.082;2023-07-20T13:35:13;1.40;;;0.93;;
16099;SDS011;8154;50.830;12.082;2023-07-20T13:37:40;1.50;;;0.95;;
16099;SDS011;8154;50.830;12.082;2023-07-20T13:40:07;1.25;;;0.95;;
16099;SDS011;8154;50.830;12.082;2023-07-20T13:42:39;2.17;;;1.00;;
16099;SDS011;8154;50.830;12.082;2023-07-20T13:45:08;1.40;;;0.85;;
16099;SDS011;8154;50.830;12.082;2023-07-20T13:47:34;1.65;;;0.80;;
16099;SDS011;8154;50.830;12.082;2023-07-20T13:50:00;1.27;;;0.90;;
16099;SDS011;8154;50.830;12.082;2023-07-20T13:52:27;1.60;;;1.00;;
16099;SDS011;8154;50.830;12.082;2023-07-20T13:54:53;1.37;;;0.90;;
16099;SDS011;8154;50.830;12.082;2023-07-20T13:57:20;1.27;;;0.80;;
16099;SDS011;8154;50.830;12.082;2023-07-20T13:59:46;1.60;;;0.90;;
16099;SDS011;8154;50.830;12.082;2023-07-20T14:02:13;1.80;;;0.98;;
16099;SDS011;8154;50.830;12.082;2023-07-20T14:04:40;1.83;;;1.10;;
16099;SDS011;8154;50.830;12.082;2023-07-20T14:07:11;1.30;;;0.97;;
16099;SDS011;8154;50.830;12.082;2023-07-20T14:09:38;1.48;;;0.90;;
16099;SDS011;8154;50.830;12.082;2023-07-20T14:12:09;1.38;;;0.90;;
16099;SDS011;8154;50.830;12.082;2023-07-20T14:14:40;2.05;;;1.00;;
16099;SDS011;8154;50.830;12.082;2023-07-20T14:17:07;1.60;;;1.00;;
16099;SDS011;8154;50.830;12.082;2023-07-20T14:19:33;1.90;;;1.10;;
16099;SDS011;8154;50.830;12.082;2023-07-20T14:22:00;1.23;;;0.90;;
16099;SDS011;8154;50.830;12.082;2023-07-20T14:24:26;1.50;;;1.00;;
16099;SDS011;8154;50.830;12.082;2023-07-20T14:26:54;1.58;;;0.80;;
16099;SDS011;8154;50.830;12.082;2023-07-20T14:29:21;1.15;;;0.77;;
16099;SDS011;8154;50.830;12.082;2023-07-20T14:31:47;1.53;;;1.00;;
16099;SDS011;8154;50.830;12.082;2023-07-20T14:34:19;1.55;;;0.90;;
16099;SDS011;8154;50.830;12.082;2023-07-20T14:36:46;1.55;;;0.95;;
16099;SDS011;8154;50.830;12.082;2023-07-20T14:39:12;1.50;;;1.00;;
16099;SDS011;8154;50.830;12.082;2023-07-20T14:41:39;1.65;;;1.10;;
16099;SDS011;8154;50.830;12.082;2023-07-20T14:44:05;1.50;;;0.90;;
16099;SDS011;8154;50.830;12.082;2023-07-20T14:46:32;1.77;;;0.93;;
16099;SDS011;8154;50.830;12.082;2023-07-20T14:48:58;1.55;;;0.90;;
16099;SDS011;8154;50.830;12.082;2023-07-20T14:51:24;1.50;;;0.90;;
16099;SDS011;8154;50.830;12.082;2023-07-20T14:53:50;1.60;;;1.00;;
16099;SDS011;8154;50.830;12.082;2023-07-20T14:56:17;1.10;;;0.80;;
16099;SDS011;8154;50.830;12.082;2023-07-20T14:58:44;1.40;;;0.70;;
16099;SDS011;8154;50.830;12.082;2023-07-20T15:01:11;1.40;;;0.90;;
16099;SDS011;8154;50.830;12.082;2023-07-20T15:03:37;1.30;;;0.70;;
16099;SDS011;8154;50.830;12.082;2023-07-20T15:06:03;1.23;;;0.80;;
16099;SDS011;8154;50.830;12.082;2023-07-20T15:08:30;1.70;;;0.90;;
16099;SDS011;8154;50.830;12.082;2023-07-20T15:10:56;1.77;;;1.00;;
16099;SDS011;8154;50.830;12.082;2023-07-20T15:13:22;1.25;;;0.90;;
16099;SDS011;8154;50.830;12.082;2023-07-20T15:15:52;1.35;;;0.80;;
16099;SDS011;8154;50.830;12.082;2023-07-20T15:18:19;1.40;;;1.00;;